Time;durP1;ratioP1;P1;durP2;ratioP2;P2;SDS_P1;SDS_P2;PMS_P1;PMS_P2;Temp;Humidity;BMP_temperature;BMP_pressure;BME280_temperature;BME280_humidity;BME280_pressure;Samples;Min_cycle;Max_cycle;Signal;HPM_P1;HPM_P2
2023/07/31 00:00:03;;;;;;;0.90;0.90;;;;;;;;;;5014045;28;20469;-79
2023/07/31 00:02:31;;;;;;;0.70;0.70;;;;;;;;;;5028551;28;20467;-80
2023/07/31 00:04:58;;;;;;;0.70;0.70;;;;;;;;;;5015372;28;20473;-82
2023/07/31 00:07:25;;;;;;;0.67;0.63;;;;;;;;;;5008821;28;20455;-81
2023/07/31 00:09:53;;;;;;;0.60;0.60;;;;;;;;;;5025499;28;20448;-80
2023/07/31 00:12:20;;;;;;;0.67;0.60;;;;;;;;;;5026883;28;20848;-76
2023/07/31 00:14:46;;;;;;;0.77;0.77;;;;;;;;;;5006909;28;20941;-80
2023/07/31 00:17:13;;;;;;;0.70;0.70;;;;;;;;;;5009322;28;20495;-80
2023/07/31 00:19:41;;;;;;;0.73;0.73;;;;;;;;;;5014049;28;20499;-79
2023/07/31 00:22:07;;;;;;;0.70;0.70;;;;;;;;;;5005194;28;20474;-80
2023/07/31 00:24:34;;;;;;;1.33;1.23;;;;;;;;;;5022525;28;20441;-81
2023/07/31 00:27:01;;;;;;;0.70;0.70;;;;;;;;;;5023846;28;20431;-79
2023/07/31 00:29:27;;;;;;;0.67;0.60;;;;;;;;;;5019678;28;20496;-80
2023/07/31 00:31:54;;;;;;;0.70;0.70;;;;;;;;;;5012900;28;20958;-79
2023/07/31 00:34:21;;;;;;;0.70;0.60;;;;;;;;;;5026130;28;20916;-81
2023/07/31 00:36:48;;;;;;;0.67;0.67;;;;;;;;;;5024699;28;21029;-79
2023/07/31 00:39:15;;;;;;;1.03;1.00;;;;;;;;;;5012969;28;20444;-79
2023/07/31 00:41:43;;;;;;;0.80;0.77;;;;;;;;;;5014083;28;20496;-80
2023/07/31 00:44:10;;;;;;;0.70;0.70;;;;;;;;;;5026216;28;20474;-79
2023/07/31 00:46:37;;;;;;;0.63;0.60;;;;;;;;;;5011098;28;20454;-79
2023/07/31 00:49:05;;;;;;;0.70;0.70;;;;;;;;;;5024807;28;20445;-81
2023/07/31 00:51:32;;;;;;;0.63;0.60;;;;;;;;;;5008011;28;20442;-82
2023/07/31 00:54:01;;;;;;;0.80;0.80;;;;;;;;;;5014272;28;20496;-79
2023/07/31 00:56:28;;;;;;;0.70;0.67;;;;;;;;;;5016921;28;20922;-78
2023/07/31 00:58:55;;;;;;;0.60;0.60;;;;;;;;;;5012592;28;20487;-81
2023/07/31 01:01:22;;;;;;;0.70;0.70;;;;;;;;;;5011098;28;20471;-81
2023/07/31 01:03:51;;;;;;;0.70;0.70;;;;;;;;;;5013075;28;21510;-80
2023/07/31 01:06:23;;;;;;;0.80;0.80;;;;;;;;;;5021289;28;20450;-78
2023/07/31 01:08:54;;;;;;;0.67;0.60;;;;;;;;;;5005997;28;20489;-80
2023/07/31 01:11:27;;;;;;;0.70;0.70;;;;;;;;;;5012846;28;20433;-77
2023/07/31 01:13:54;;;;;;;0.70;0.70;;;;;;;;;;5025575;28;20459;-79
2023/07/31 01:16:20;;;;;;;0.80;0.80;;;;;;;;;;5009915;28;20451;-81
2023/07/31 01:18:47;;;;;;;0.70;0.60;;;;;;;;;;5009081;28;20554;-78
2023/07/31 01:21:21;;;;;;;0.70;0.70;;;;;;;;;;5012385;28;20491;-79
2023/07/31 01:23:57;;;;;;;0.60;0.60;;;;;;;;;;5023577;28;20457;-80
2023/07/31 01:26:28;;;;;;;0.70;0.63;;;;;;;;;;5011373;28;20434;-80
2023/07/31 01:28:56;;;;;;;0.63;0.60;;;;;;;;;;5011259;28;20455;-81
2023/07/31 01:31:24;;;;;;;0.60;0.60;;;;;;;;;;4997217;28;20451;-79
2023/07/31 01:33:52;;;;;;;0.60;0.60;;;;;;;;;;5012212;28;20446;-79
2023/07/31 01:36:19;;;;;;;0.87;0.87;;;;;;;;;;5011967;28;20484;-79
2023/07/31 01:38:46;;;;;;;0.70;0.70;;;;;;;;;;5013475;28;20461;-81
2023/07/31 01:41:13;;;;;;;2.90;2.37;;;;;;;;;;5022932;28;21015;-80
2023/07/31 01:43:41;;;;;;;0.70;0.67;;;;;;;;;;5010836;28;21035;-81
2023/07/31 01:46:07;;;;;;;0.60;0.60;;;;;;;;;;5023350;28;20445;-81
2023/07/31 01:48:35;;;;;;;0.70;0.70;;;;;;;;;;4996885;28;20454;-78
2023/07/31 01:51:02;;;;;;;0.70;0.63;;;;;;;;;;5008105;28;20440;-80
2023/07/31 01:53:30;;;;;;;0.70;0.60;;;;;;;;;;5026926;28;20464;-79
2023/07/31 01:55:56;;;;;;;1.33;1.23;;;;;;;;;;5003610;28;20432;-80
2023/07/31 01:58:23;;;;;;;0.60;0.60;;;;;;;;;;5010814;28;20433;-80
2023/07/31 02:00:51;;;;;;;0.70;0.70;;;;;;;;;;5005036;28;20990;-78
2023/07/31 02:03:18;;;;;;;13.63;2.00;;;;;;;;;;5009302;28;20442;-81
2023/07/31 02:05:45;;;;;;;0.77;0.77;;;;;;;;;;5024070;28;20452;-80
2023/07/31 02:08:12;;;;;;;0.70;0.63;;;;;;;;;;5011490;28;20514;-81
2023/07/31 02:10:38;;;;;;;2.10;1.37;;;;;;;;;;4997167;28;21019;-80
2023/07/31 02:13:05;;;;;;;0.70;0.70;;;;;;;;;;5031201;28;20440;-80
2023/07/31 02:15:32;;;;;;;0.73;0.73;;;;;;;;;;5017157;28;20968;-79
2023/07/31 02:18:00;;;;;;;0.70;0.70;;;;;;;;;;5017824;28;20496;-79
2023/07/31 02:20:26;;;;;;;0.70;0.70;;;;;;;;;;4998185;28;20441;-82
2023/07/31 02:22:53;;;;;;;0.70;0.70;;;;;;;;;;5014010;28;20482;-81
2023/07/31 02:25:20;;;;;;;0.60;0.60;;;;;;;;;;5016268;28;20446;-81
2023/07/31 02:27:47;;;;;;;0.70;0.70;;;;;;;;;;5025907;28;20447;-82
2023/07/31 02:30:14;;;;;;;0.70;0.70;;;;;;;;;;5006094;28;20443;-80
2023/07/31 02:32:41;;;;;;;0.70;0.60;;;;;;;;;;5025834;28;20440;-80
2023/07/31 02:35:09;;;;;;;0.70;0.63;;;;;;;;;;5008126;28;20428;-80
2023/07/31 02:37:38;;;;;;;0.70;0.60;;;;;;;;;;5026859;28;20813;-80
2023/07/31 02:40:05;;;;;;;0.73;0.73;;;;;;;;;;5028462;28;20919;-79
2023/07/31 02:42:31;;;;;;;0.70;0.60;;;;;;;;;;5011048;28;20484;-80
2023/07/31 02:44:58;;;;;;;0.70;0.70;;;;;;;;;;5017203;28;20451;-80
2023/07/31 02:47:25;;;;;;;0.70;0.70;;;;;;;;;;5016386;28;20443;-81
2023/07/31 02:49:52;;;;;;;0.70;0.70;;;;;;;;;;5025298;28;20443;-81
2023/07/31 02:52:20;;;;;;;0.70;0.63;;;;;;;;;;5025919;28;20456;-78
2023/07/31 02:54:47;;;;;;;0.70;0.60;;;;;;;;;;5016234;28;20440;-81
2023/07/31 02:57:13;;;;;;;0.70;0.70;;;;;;;;;;5016189;28;20461;-81
2023/07/31 02:59:40;;;;;;;0.70;0.70;;;;;;;;;;5015112;28;20434;-80
2023/07/31 03:02:07;;;;;;;0.80;0.80;;;;;;;;;;5009303;28;20883;-81
2023/07/31 03:04:33;;;;;;;0.70;0.70;;;;;;;;;;5025280;28;20449;-80
2023/07/31 03:07:00;;;;;;;0.70;0.60;;;;;;;;;;5014878;28;20440;-81
2023/07/31 03:09:28;;;;;;;0.70;0.70;;;;;;;;;;5011985;28;20428;-82
2023/07/31 03:11:55;;;;;;;0.70;0.60;;;;;;;;;;5028236;28;20814;-81
2023/07/31 03:14:21;;;;;;;0.70;0.60;;;;;;;;;;5023932;28;20973;-82
2023/07/31 03:16:48;;;;;;;0.70;0.70;;;;;;;;;;5015685;28;20452;-82
2023/07/31 03:19:15;;;;;;;0.70;0.70;;;;;;;;;;5013008;28;20448;-82
2023/07/31 03:21:42;;;;;;;0.70;0.60;;;;;;;;;;5010480;28;20475;-80
2023/07/31 03:24:08;;;;;;;0.70;0.50;;;;;;;;;;5020943;28;20456;-81
2023/07/31 03:26:36;;;;;;;0.70;0.70;;;;;;;;;;5008780;28;20196;-82
2023/07/31 03:29:04;;;;;;;0.80;0.73;;;;;;;;;;5007615;28;20819;-82
2023/07/31 03:31:30;;;;;;;0.70;0.60;;;;;;;;;;5024333;28;20444;-82
2023/07/31 03:33:57;;;;;;;0.70;0.67;;;;;;;;;;5015216;28;20461;-81
2023/07/31 03:36:24;;;;;;;0.70;0.70;;;;;;;;;;4999497;28;20432;-80
2023/07/31 03:38:51;;;;;;;0.70;0.70;;;;;;;;;;5013361;28;20463;-80
2023/07/31 03:41:18;;;;;;;0.80;0.80;;;;;;;;;;5009012;28;20485;-82
2023/07/31 03:43:51;;;;;;;0.70;0.70;;;;;;;;;;4991780;28;20511;-81
2023/07/31 03:46:18;;;;;;;0.87;0.87;;;;;;;;;;5011287;28;20440;-80
2023/07/31 03:48:45;;;;;;;0.70;0.70;;;;;;;;;;5008229;28;20444;-82
2023/07/31 03:51:11;;;;;;;1.37;1.27;;;;;;;;;;5008224;28;20446;-81
2023/07/31 03:53:38;;;;;;;0.80;0.80;;;;;;;;;;5025191;28;20558;-81
2023/07/31 03:56:04;;;;;;;0.70;0.70;;;;;;;;;;5025084;28;20472;-81
2023/07/31 03:58:33;;;;;;;0.70;0.52;;;;;;;;;;5004407;28;20395;-81
2023/07/31 04:01:01;;;;;;;0.70;0.70;;;;;;;;;;5012519;28;20218;-80
2023/07/31 04:03:28;;;;;;;0.80;0.80;;;;;;;;;;5014211;28;21058;-81
2023/07/31 04:05:55;;;;;;;1.47;1.37;;;;;;;;;;5023519;28;20482;-79
2023/07/31 04:08:24;;;;;;;0.80;0.80;;;;;;;;;;5026820;28;20554;-81
2023/07/31 04:10:50;;;;;;;0.70;0.70;;;;;;;;;;5026107;28;20527;-81
2023/07/31 04:13:17;;;;;;;0.70;0.67;;;;;;;;;;5024697;28;20709;-79
2023/07/31 04:15:47;;;;;;;0.70;0.70;;;;;;;;;;5005422;28;20441;-81
2023/07/31 04:18:15;;;;;;;0.70;0.70;;;;;;;;;;5026794;28;20934;-81
2023/07/31 04:20:42;;;;;;;0.70;0.70;;;;;;;;;;5027019;28;20759;-79
2023/07/31 04:23:09;;;;;;;0.70;0.60;;;;;;;;;;5004511;28;20472;-80
2023/07/31 04:25:36;;;;;;;0.80;0.80;;;;;;;;;;5024808;28;20436;-82
2023/07/31 04:28:03;;;;;;;0.70;0.70;;;;;;;;;;5024129;28;20494;-82
2023/07/31 04:30:30;;;;;;;0.73;0.73;;;;;;;;;;5004024;28;20510;-81
2023/07/31 04:32:56;;;;;;;1.13;1.07;;;;;;;;;;5008496;28;20518;-82
2023/07/31 04:35:24;;;;;;;0.70;0.70;;;;;;;;;;5012909;28;20479;-81
2023/07/31 04:37:51;;;;;;;0.70;0.70;;;;;;;;;;5009397;28;20948;-82
2023/07/31 04:40:18;;;;;;;0.70;0.70;;;;;;;;;;5012642;28;20804;-82
2023/07/31 04:42:44;;;;;;;0.70;0.60;;;;;;;;;;5025192;28;20963;-82
2023/07/31 04:45:11;;;;;;;0.73;0.73;;;;;;;;;;5026898;28;20853;-82
2023/07/31 04:47:38;;;;;;;0.70;0.60;;;;;;;;;;5024220;28;20788;-80
2023/07/31 04:50:05;;;;;;;0.70;0.70;;;;;;;;;;4996816;28;20805;-81
2023/07/31 04:52:34;;;;;;;0.70;0.60;;;;;;;;;;5024932;28;20459;-81
2023/07/31 04:55:00;;;;;;;0.80;0.80;;;;;;;;;;5021136;28;20913;-80
2023/07/31 04:57:27;;;;;;;0.70;0.70;;;;;;;;;;5012613;28;20498;-80
2023/07/31 04:59:54;;;;;;;0.70;0.70;;;;;;;;;;5022266;28;20796;-81
2023/07/31 05:02:21;;;;;;;1.30;1.20;;;;;;;;;;5011188;28;20869;-81
2023/07/31 05:04:47;;;;;;;0.70;0.70;;;;;;;;;;5012418;28;20452;-81
2023/07/31 05:07:14;;;;;;;1.67;1.53;;;;;;;;;;5011293;28;20457;-81
2023/07/31 05:09:43;;;;;;;0.83;0.83;;;;;;;;;;5011648;28;20437;-82
2023/07/31 05:12:10;;;;;;;0.70;0.70;;;;;;;;;;5024391;28;20468;-80
2023/07/31 05:14:37;;;;;;;0.70;0.60;;;;;;;;;;5005846;28;20455;-81
2023/07/31 05:17:04;;;;;;;0.70;0.60;;;;;;;;;;5022503;28;20405;-82
2023/07/31 05:19:30;;;;;;;0.70;0.70;;;;;;;;;;5010828;28;20440;-80
2023/07/31 05:21:57;;;;;;;0.70;0.70;;;;;;;;;;5010325;28;20497;-79
2023/07/31 05:24:24;;;;;;;0.70;0.70;;;;;;;;;;5009285;28;20491;-78
2023/07/31 05:26:52;;;;;;;0.70;0.70;;;;;;;;;;5008681;28;20437;-78
2023/07/31 05:29:19;;;;;;;0.70;0.60;;;;;;;;;;5011897;28;20464;-80
2023/07/31 05:31:45;;;;;;;0.80;0.80;;;;;;;;;;5007832;28;20533;-80
2023/07/31 05:34:12;;;;;;;0.70;0.67;;;;;;;;;;5012440;28;20443;-82
2023/07/31 05:36:38;;;;;;;0.70;0.70;;;;;;;;;;5015414;28;20951;-80
2023/07/31 05:39:06;;;;;;;0.70;0.67;;;;;;;;;;5013603;28;20464;-81
2023/07/31 05:41:33;;;;;;;1.10;1.10;;;;;;;;;;5008797;28;20433;-81
2023/07/31 05:44:01;;;;;;;0.70;0.70;;;;;;;;;;5012443;28;20468;-79
2023/07/31 05:46:28;;;;;;;0.70;0.70;;;;;;;;;;5015557;28;20492;-80
2023/07/31 05:48:55;;;;;;;0.70;0.70;;;;;;;;;;5014263;28;20443;-81
2023/07/31 05:51:22;;;;;;;0.70;0.70;;;;;;;;;;5025549;28;20416;-81
2023/07/31 05:53:49;;;;;;;0.80;0.70;;;;;;;;;;5016519;28;20543;-79
2023/07/31 05:56:16;;;;;;;0.70;0.70;;;;;;;;;;5031710;28;20467;-79
2023/07/31 05:58:43;;;;;;;0.70;0.50;;;;;;;;;;5021381;28;20413;-79
2023/07/31 06:01:11;;;;;;;0.70;0.50;;;;;;;;;;5008091;28;20415;-79
2023/07/31 06:03:38;;;;;;;1.00;0.70;;;;;;;;;;4997257;28;20420;-79
2023/07/31 06:06:05;;;;;;;0.70;0.60;;;;;;;;;;5028158;28;20217;-81
2023/07/31 06:08:32;;;;;;;0.70;0.70;;;;;;;;;;5028991;28;20551;-81
2023/07/31 06:10:59;;;;;;;0.80;0.80;;;;;;;;;;5023621;28;20444;-84
2023/07/31 06:13:26;;;;;;;0.70;0.60;;;;;;;;;;5028802;28;20407;-83
2023/07/31 06:15:53;;;;;;;0.70;0.70;;;;;;;;;;5027860;28;20426;-82
2023/07/31 06:18:21;;;;;;;0.70;0.67;;;;;;;;;;5027097;28;20512;-82
2023/07/31 06:20:53;;;;;;;0.70;0.70;;;;;;;;;;5018062;28;20837;-80
2023/07/31 06:23:20;;;;;;;0.70;0.70;;;;;;;;;;5027198;28;20571;-80
2023/07/31 06:25:47;;;;;;;0.70;0.70;;;;;;;;;;5010246;28;20436;-81
2023/07/31 06:28:14;;;;;;;0.70;0.70;;;;;;;;;;5015494;28;20471;-80
2023/07/31 06:30:40;;;;;;;0.70;0.70;;;;;;;;;;5029573;28;20437;-81
2023/07/31 06:33:07;;;;;;;0.80;0.70;;;;;;;;;;5017959;28;20436;-81
2023/07/31 06:35:35;;;;;;;0.70;0.70;;;;;;;;;;5028981;28;20801;-82
2023/07/31 06:38:02;;;;;;;0.70;0.60;;;;;;;;;;5006960;28;20468;-80
2023/07/31 06:40:29;;;;;;;0.70;0.70;;;;;;;;;;5030609;28;20448;-82
2023/07/31 06:42:55;;;;;;;0.70;0.63;;;;;;;;;;5027942;28;20476;-81
2023/07/31 06:45:22;;;;;;;4.40;1.67;;;;;;;;;;5026769;28;20448;-83
2023/07/31 06:47:49;;;;;;;1.00;0.90;;;;;;;;;;5026763;28;20830;-83
2023/07/31 06:50:16;;;;;;;0.70;0.70;;;;;;;;;;5001670;28;20556;-82
2023/07/31 06:52:43;;;;;;;0.70;0.70;;;;;;;;;;5027631;28;20514;-82
2023/07/31 06:55:20;;;;;;;0.80;0.80;;;;;;;;;;5027866;28;20525;-81
2023/07/31 06:57:46;;;;;;;0.80;0.80;;;;;;;;;;5013327;28;20534;-82
2023/07/31 07:00:13;;;;;;;0.90;0.90;;;;;;;;;;5027839;28;20446;-81
2023/07/31 07:02:40;;;;;;;0.70;0.70;;;;;;;;;;5008946;28;20739;-82
2023/07/31 07:05:07;;;;;;;0.70;0.70;;;;;;;;;;5030394;28;20469;-83
2023/07/31 07:07:34;;;;;;;0.80;0.80;;;;;;;;;;5030032;28;20527;-83
2023/07/31 07:10:05;;;;;;;0.70;0.70;;;;;;;;;;5031624;28;20519;-81
2023/07/31 07:12:32;;;;;;;0.70;0.70;;;;;;;;;;5018220;28;20424;-83
2023/07/31 07:14:58;;;;;;;5.23;3.23;;;;;;;;;;5014003;28;20474;-81
2023/07/31 07:17:25;;;;;;;0.70;0.70;;;;;;;;;;4996422;28;20494;-81
2023/07/31 07:19:52;;;;;;;0.70;0.70;;;;;;;;;;5014893;28;20486;-82
2023/07/31 07:22:19;;;;;;;0.70;0.70;;;;;;;;;;5017034;28;20522;-82
2023/07/31 07:24:47;;;;;;;0.70;0.70;;;;;;;;;;5031157;28;20463;-82
2023/07/31 07:27:15;;;;;;;1.43;1.23;;;;;;;;;;5018717;28;20436;-83
2023/07/31 07:29:41;;;;;;;0.70;0.60;;;;;;;;;;5030922;28;20465;-83
2023/07/31 07:32:08;;;;;;;0.70;0.70;;;;;;;;;;5029235;28;20448;-80
2023/07/31 07:34:35;;;;;;;0.70;0.70;;;;;;;;;;5025869;28;20481;-80
2023/07/31 07:37:02;;;;;;;0.70;0.70;;;;;;;;;;5024465;28;20525;-80
2023/07/31 07:39:29;;;;;;;1.00;0.90;;;;;;;;;;5012861;28;20453;-80
2023/07/31 07:41:55;;;;;;;0.70;0.70;;;;;;;;;;5013040;28;21009;-79
2023/07/31 07:44:24;;;;;;;1.03;1.00;;;;;;;;;;5008038;28;20476;-79
2023/07/31 07:46:50;;;;;;;0.70;0.70;;;;;;;;;;5005850;28;20484;-79
2023/07/31 07:49:17;;;;;;;0.70;0.70;;;;;;;;;;5022247;28;20453;-77
2023/07/31 07:51:44;;;;;;;0.70;0.70;;;;;;;;;;5014106;28;20441;-80
2023/07/31 07:54:10;;;;;;;0.70;0.70;;;;;;;;;;5012462;28;20460;-80
2023/07/31 07:56:39;;;;;;;1.20;1.10;;;;;;;;;;5012728;28;20938;-80
2023/07/31 07:59:06;;;;;;;1.70;1.37;;;;;;;;;;5010137;28;20447;-79
2023/07/31 08:01:34;;;;;;;1.47;1.37;;;;;;;;;;5024911;28;20439;-80
2023/07/31 08:04:01;;;;;;;0.70;0.70;;;;;;;;;;5026258;28;20481;-80
2023/07/31 08:06:29;;;;;;;1.00;0.90;;;;;;;;;;4997437;28;20447;-79
2023/07/31 08:08:56;;;;;;;0.97;0.90;;;;;;;;;;5023096;28;20462;-82
2023/07/31 08:11:23;;;;;;;0.70;0.67;;;;;;;;;;5006472;28;20481;-80
2023/07/31 08:13:50;;;;;;;0.90;0.90;;;;;;;;;;4990612;28;20820;-81
2023/07/31 08:16:17;;;;;;;0.70;0.70;;;;;;;;;;5013362;28;20447;-80
2023/07/31 08:18:45;;;;;;;0.70;0.60;;;;;;;;;;5009465;28;20508;-82
2023/07/31 08:21:13;;;;;;;0.70;0.60;;;;;;;;;;5012059;28;20428;-82
2023/07/31 08:23:39;;;;;;;0.70;0.70;;;;;;;;;;5027888;28;20479;-82
2023/07/31 08:26:06;;;;;;;0.70;0.60;;;;;;;;;;5013527;28;20458;-83
2023/07/31 08:28:32;;;;;;;0.70;0.63;;;;;;;;;;5024356;28;20926;-84
2023/07/31 08:31:00;;;;;;;1.20;1.10;;;;;;;;;;5025711;28;21039;-84
2023/07/31 08:33:27;;;;;;;0.70;0.60;;;;;;;;;;5014039;28;20433;-85
2023/07/31 08:35:55;;;;;;;0.70;0.60;;;;;;;;;;5020981;28;20433;-82
2023/07/31 08:38:25;;;;;;;0.70;0.70;;;;;;;;;;5008242;28;20518;-84
2023/07/31 08:40:52;;;;;;;0.70;0.60;;;;;;;;;;5013025;28;20460;-84
2023/07/31 08:43:18;;;;;;;0.80;0.80;;;;;;;;;;5024972;28;20479;-83
2023/07/31 08:45:46;;;;;;;0.70;0.70;;;;;;;;;;5023147;28;20536;-83
2023/07/31 08:48:15;;;;;;;0.70;0.60;;;;;;;;;;5004916;28;20491;-84
2023/07/31 08:50:44;;;;;;;0.70;0.60;;;;;;;;;;5011234;28;20540;-85
2023/07/31 08:53:12;;;;;;;0.70;0.60;;;;;;;;;;5013359;28;20477;-84
2023/07/31 08:55:38;;;;;;;1.10;0.80;;;;;;;;;;5026671;28;20469;-83
2023/07/31 08:58:06;;;;;;;0.70;0.70;;;;;;;;;;5024567;28;20439;-83
2023/07/31 09:00:33;;;;;;;0.70;0.60;;;;;;;;;;5008933;28;20433;-84
2023/07/31 09:03:03;;;;;;;0.70;0.60;;;;;;;;;;5016099;28;20502;-83
2023/07/31 09:05:31;;;;;;;0.70;0.60;;;;;;;;;;5005742;28;20449;-84
2023/07/31 09:07:59;;;;;;;0.70;0.70;;;;;;;;;;5013983;28;20472;-84
2023/07/31 09:10:28;;;;;;;0.70;0.70;;;;;;;;;;5017269;28;20449;-82
2023/07/31 09:12:54;;;;;;;0.70;0.60;;;;;;;;;;5015982;28;20457;-84
2023/07/31 09:15:23;;;;;;;0.70;0.60;;;;;;;;;;5022628;28;20435;-81
2023/07/31 09:18:05;;;;;;;0.70;0.60;;;;;;;;;;5026840;28;20834;-86
2023/07/31 09:20:33;;;;;;;0.70;0.70;;;;;;;;;;5015483;28;20481;-85
2023/07/31 09:23:08;;;;;;;0.70;0.60;;;;;;;;;;5029325;28;20456;-84
2023/07/31 09:25:36;;;;;;;0.70;0.60;;;;;;;;;;5022513;28;20439;-85
2023/07/31 09:28:04;;;;;;;0.70;0.70;;;;;;;;;;5010237;28;20475;-82
2023/07/31 09:30:43;;;;;;;0.70;0.60;;;;;;;;;;5022123;28;20437;-83
2023/07/31 09:33:10;;;;;;;0.70;0.70;;;;;;;;;;5000085;28;20973;-83
2023/07/31 09:35:40;;;;;;;0.70;0.70;;;;;;;;;;5012775;28;20536;-85
2023/07/31 09:38:08;;;;;;;0.70;0.60;;;;;;;;;;5025866;28;20945;-84
2023/07/31 09:40:37;;;;;;;0.80;0.80;;;;;;;;;;5024992;28;20529;-86
2023/07/31 09:43:04;;;;;;;0.80;0.70;;;;;;;;;;5028161;28;20952;-84
2023/07/31 09:45:33;;;;;;;0.70;0.60;;;;;;;;;;5009237;28;20491;-83
2023/07/31 09:48:08;;;;;;;0.80;0.80;;;;;;;;;;5013417;28;20457;-83
2023/07/31 09:50:36;;;;;;;0.70;0.60;;;;;;;;;;5013005;28;21012;-84
2023/07/31 09:53:03;;;;;;;0.70;0.60;;;;;;;;;;5017489;28;20447;-84
2023/07/31 09:55:29;;;;;;;0.70;0.70;;;;;;;;;;5008087;28;20804;-84
2023/07/31 09:57:58;;;;;;;0.70;0.70;;;;;;;;;;5021960;28;20586;-83
2023/07/31 10:00:28;;;;;;;0.70;0.70;;;;;;;;;;5023573;28;20414;-83
2023/07/31 10:02:57;;;;;;;0.70;0.60;;;;;;;;;;5005896;28;20424;-83
2023/07/31 10:05:28;;;;;;;0.70;0.70;;;;;;;;;;5011145;28;20436;-83
2023/07/31 10:07:55;;;;;;;1.27;1.17;;;;;;;;;;5020465;28;20489;-84
2023/07/31 10:10:23;;;;;;;0.70;0.70;;;;;;;;;;5024344;28;20447;-82
2023/07/31 10:12:51;;;;;;;0.70;0.60;;;;;;;;;;5027803;28;20407;-82
2023/07/31 10:15:20;;;;;;;0.70;0.60;;;;;;;;;;5005163;28;20412;-83
2023/07/31 10:17:47;;;;;;;0.70;0.60;;;;;;;;;;5022754;28;20407;-82
2023/07/31 10:20:16;;;;;;;0.80;0.80;;;;;;;;;;5012131;28;20486;-82
2023/07/31 10:22:45;;;;;;;0.90;0.90;;;;;;;;;;5017750;28;20452;-80
2023/07/31 10:25:12;;;;;;;0.70;0.60;;;;;;;;;;5025874;28;20441;-82
2023/07/31 10:27:39;;;;;;;0.90;0.90;;;;;;;;;;5024404;28;20790;-81
2023/07/31 10:30:08;;;;;;;0.80;0.80;;;;;;;;;;5010686;28;21029;-80
2023/07/31 10:32:40;;;;;;;0.70;0.60;;;;;;;;;;5022187;28;20420;-80
2023/07/31 10:35:08;;;;;;;0.70;0.60;;;;;;;;;;5032846;28;20445;-82
2023/07/31 10:37:36;;;;;;;0.70;0.60;;;;;;;;;;5015387;28;20792;-80
2023/07/31 10:40:04;;;;;;;0.70;0.60;;;;;;;;;;5031141;28;20851;-81
2023/07/31 10:42:32;;;;;;;0.70;0.60;;;;;;;;;;5006802;28;20431;-81
2023/07/31 10:45:02;;;;;;;0.80;0.70;;;;;;;;;;5027453;28;20453;-81
2023/07/31 10:47:28;;;;;;;0.70;0.60;;;;;;;;;;5019318;28;20423;-79
2023/07/31 10:50:10;;;;;;;0.70;0.60;;;;;;;;;;5013722;28;20818;-79
2023/07/31 10:52:39;;;;;;;0.70;0.70;;;;;;;;;;5011884;28;20447;-76
2023/07/31 10:55:13;;;;;;;0.70;0.70;;;;;;;;;;5025555;28;20410;-76
2023/07/31 10:57:44;;;;;;;0.70;0.67;;;;;;;;;;5027655;28;20407;-81
2023/07/31 11:00:21;;;;;;;0.70;0.60;;;;;;;;;;5016324;28;20396;-80
2023/07/31 11:02:57;;;;;;;0.70;0.60;;;;;;;;;;5029194;28;20461;-80
2023/07/31 11:05:38;;;;;;;0.70;0.60;;;;;;;;;;5016780;28;20454;-80
2023/07/31 11:08:11;;;;;;;0.80;0.73;;;;;;;;;;5026724;28;20500;-79
2023/07/31 11:10:39;;;;;;;0.80;0.77;;;;;;;;;;5012440;28;20444;-81
2023/07/31 11:13:06;;;;;;;0.70;0.70;;;;;;;;;;5022291;28;20461;-80
2023/07/31 11:15:33;;;;;;;0.77;0.70;;;;;;;;;;4998253;28;20961;-79
2023/07/31 11:18:03;;;;;;;0.70;0.70;;;;;;;;;;5005933;28;20857;-79
2023/07/31 11:20:31;;;;;;;0.70;0.70;;;;;;;;;;5012735;28;20922;-79
2023/07/31 11:23:00;;;;;;;0.70;0.70;;;;;;;;;;5028830;28;20548;-79
2023/07/31 11:25:30;;;;;;;0.80;0.70;;;;;;;;;;5026043;28;20461;-80
2023/07/31 11:27:57;;;;;;;0.70;0.70;;;;;;;;;;5011256;28;20476;-79
2023/07/31 11:30:25;;;;;;;0.70;0.60;;;;;;;;;;5008931;28;20533;-80
2023/07/31 11:32:51;;;;;;;0.70;0.70;;;;;;;;;;5015391;28;20446;-79
2023/07/31 11:35:19;;;;;;;0.70;0.60;;;;;;;;;;5027379;28;20403;-78
2023/07/31 11:37:46;;;;;;;0.70;0.60;;;;;;;;;;5025789;28;20560;-78
2023/07/31 11:40:14;;;;;;;0.80;0.77;;;;;;;;;;5012175;28;20448;-79
2023/07/31 11:42:42;;;;;;;0.70;0.60;;;;;;;;;;5008837;28;20415;-78
2023/07/31 11:45:10;;;;;;;0.80;0.70;;;;;;;;;;5006143;28;20443;-78
2023/07/31 11:47:37;;;;;;;0.80;0.70;;;;;;;;;;5009011;28;20635;-79
2023/07/31 11:50:09;;;;;;;0.70;0.63;;;;;;;;;;5026096;28;20441;-79
2023/07/31 11:52:37;;;;;;;0.70;0.60;;;;;;;;;;5011031;28;20809;-77
2023/07/31 11:55:04;;;;;;;;;;;;;;;;;;5031739;28;20732;-79
2023/07/31 11:57:30;;;;;;;0.70;0.60;;;;;;;;;;5017197;28;20286;-76
2023/07/31 11:59:59;;;;;;;0.70;0.50;;;;;;;;;;5013586;28;20415;-81
2023/07/31 12:02:25;;;;;;;0.70;0.60;;;;;;;;;;5025760;28;20587;-80
2023/07/31 12:04:53;;;;;;;0.70;0.40;;;;;;;;;;5021973;28;20434;-80
2023/07/31 12:07:19;;;;;;;0.80;0.70;;;;;;;;;;5028405;28;20284;-80
2023/07/31 12:09:52;;;;;;;0.80;0.70;;;;;;;;;;5013141;28;20852;-80
2023/07/31 12:12:19;;;;;;;0.70;0.60;;;;;;;;;;5017074;28;20499;-80
2023/07/31 12:14:46;;;;;;;0.70;0.60;;;;;;;;;;5027873;28;20437;-79
2023/07/31 12:17:15;;;;;;;0.70;0.60;;;;;;;;;;5016585;28;20453;-78
2023/07/31 12:19:42;;;;;;;0.80;0.70;;;;;;;;;;5025282;28;20483;-79
2023/07/31 12:22:11;;;;;;;0.70;0.67;;;;;;;;;;5024663;28;20467;-80
2023/07/31 12:24:39;;;;;;;0.77;0.70;;;;;;;;;;5026701;28;20786;-79
2023/07/31 12:27:08;;;;;;;0.70;0.70;;;;;;;;;;5028897;28;20844;-78
2023/07/31 12:29:35;;;;;;;0.70;0.70;;;;;;;;;;5025691;28;20899;-78
2023/07/31 12:32:20;;;;;;;0.70;0.60;;;;;;;;;;5024357;28;20430;-82
2023/07/31 12:34:48;;;;;;;0.70;0.60;;;;;;;;;;5025556;28;20411;-81
2023/07/31 12:37:15;;;;;;;0.70;0.60;;;;;;;;;;5027604;28;20431;-81
2023/07/31 12:39:41;;;;;;;0.70;0.70;;;;;;;;;;5016528;28;20433;-77
2023/07/31 12:42:09;;;;;;;;;;;;;;;;;;5018069;28;20323;-77
2023/07/31 12:44:37;;;;;;;0.73;0.70;;;;;;;;;;5016113;28;20319;-81
2023/07/31 12:47:04;;;;;;;0.70;0.60;;;;;;;;;;5024277;28;20437;-76
2023/07/31 12:49:33;;;;;;;0.80;0.80;;;;;;;;;;5029396;28;20440;-80
2023/07/31 12:52:01;;;;;;;0.70;0.60;;;;;;;;;;5023910;28;20463;-77
2023/07/31 12:54:28;;;;;;;0.70;0.70;;;;;;;;;;5010614;28;20533;-74
2023/07/31 12:56:55;;;;;;;0.70;0.70;;;;;;;;;;5014706;28;20440;-80
2023/07/31 12:59:24;;;;;;;0.70;0.70;;;;;;;;;;5016198;28;20429;-75
2023/07/31 13:01:52;;;;;;;0.70;0.60;;;;;;;;;;5015884;28;20445;-80
2023/07/31 13:04:19;;;;;;;0.70;0.67;;;;;;;;;;5026665;28;20477;-79
2023/07/31 13:06:50;;;;;;;0.80;0.80;;;;;;;;;;5012420;28;20432;-75
2023/07/31 13:09:18;;;;;;;0.70;0.63;;;;;;;;;;5012498;28;20434;-81
2023/07/31 13:11:44;;;;;;;0.70;0.60;;;;;;;;;;5025230;28;20448;-77
2023/07/31 13:14:13;;;;;;;0.70;0.50;;;;;;;;;;4992603;28;20859;-80
2023/07/31 13:16:39;;;;;;;1.80;1.00;;;;;;;;;;5006450;28;20205;-82
2023/07/31 13:19:08;;;;;;;0.70;0.70;;;;;;;;;;5027559;28;20408;-79
2023/07/31 13:21:36;;;;;;;;;;;;;;;;;;5023691;28;20295;-79
2023/07/31 13:24:05;;;;;;;0.70;0.70;;;;;;;;;;5023104;28;20203;-80
2023/07/31 13:26:32;;;;;;;0.80;0.80;;;;;;;;;;5027858;28;20873;-81
2023/07/31 13:28:58;;;;;;;1.03;1.00;;;;;;;;;;5021719;28;20794;-80
2023/07/31 13:31:26;;;;;;;0.80;0.70;;;;;;;;;;5013375;28;20449;-83
2023/07/31 13:33:53;;;;;;;;;;;;;;;;;;5011463;28;20266;-82
2023/07/31 13:36:19;;;;;;;0.70;0.50;;;;;;;;;;5008465;28;20423;-77
2023/07/31 13:38:46;;;;;;;0.70;0.50;;;;;;;;;;5007088;28;20440;-81
2023/07/31 13:41:14;;;;;;;2.70;0.65;;;;;;;;;;4997522;28;20776;-80
2023/07/31 13:43:42;;;;;;;0.70;0.50;;;;;;;;;;5025291;28;20451;-81
2023/07/31 13:46:10;;;;;;;0.93;0.93;;;;;;;;;;5012189;28;20210;-79
2023/07/31 13:48:37;;;;;;;2.10;0.77;;;;;;;;;;5022704;28;20429;-80
2023/07/31 13:51:04;;;;;;;1.43;0.70;;;;;;;;;;5027135;28;20436;-81
2023/07/31 13:53:31;;;;;;;0.70;0.60;;;;;;;;;;5026124;28;20467;-76
2023/07/31 13:55:58;;;;;;;0.80;0.67;;;;;;;;;;5004142;28;20433;-79
2023/07/31 13:58:26;;;;;;;1.20;0.80;;;;;;;;;;5023281;28;20411;-78
2023/07/31 14:00:52;;;;;;;;;;;;;;;;;;5025026;28;20052;-78
2023/07/31 14:03:20;;;;;;;0.70;0.60;;;;;;;;;;5025346;28;20403;-75
2023/07/31 14:05:46;;;;;;;0.70;0.50;;;;;;;;;;5006537;28;20432;-75
2023/07/31 14:08:13;;;;;;;0.70;0.50;;;;;;;;;;5011313;28;20417;-76
2023/07/31 14:10:41;;;;;;;0.80;0.80;;;;;;;;;;5027706;28;20404;-79
2023/07/31 14:13:10;;;;;;;;;;;;;;;;;;5013596;28;20057;-79
2023/07/31 14:15:36;;;;;;;;;;;;;;;;;;5032048;28;19979;-76
2023/07/31 14:18:04;;;;;;;0.70;0.60;;;;;;;;;;5020474;28;20216;-80
2023/07/31 14:20:31;;;;;;;;;;;;;;;;;;5025550;28;20415;-79
2023/07/31 14:22:59;;;;;;;0.70;0.60;;;;;;;;;;5028982;28;20203;-81
2023/07/31 14:25:26;;;;;;;0.70;0.50;;;;;;;;;;5012661;28;20484;-81
2023/07/31 14:27:52;;;;;;;0.70;0.60;;;;;;;;;;5029669;28;20253;-80
2023/07/31 14:30:19;;;;;;;0.70;0.67;;;;;;;;;;5018801;28;20481;-79
2023/07/31 14:32:48;;;;;;;0.80;0.73;;;;;;;;;;5014188;28;20438;-78
2023/07/31 14:35:16;;;;;;;1.00;0.90;;;;;;;;;;5015243;28;20439;-75
2023/07/31 14:37:42;;;;;;;;;;;;;;;;;;5020528;28;20291;-76
2023/07/31 14:40:11;;;;;;;0.70;0.50;;;;;;;;;;5026003;28;20408;-78
2023/07/31 14:42:39;;;;;;;2.20;2.10;;;;;;;;;;5019568;28;20198;-79
2023/07/31 14:45:06;;;;;;;0.70;0.60;;;;;;;;;;5014699;28;20523;-76
2023/07/31 14:47:33;;;;;;;0.73;0.70;;;;;;;;;;5013270;28;20268;-79